createdAt,value
2018-09-29T00:01:21.160Z,5.20
2018-09-29T00:03:49.356Z,4.77
2018-09-29T00:06:17.562Z,5.33
2018-09-29T00:08:45.736Z,5.23
2018-09-29T00:11:13.979Z,4.83
2018-09-29T00:13:42.241Z,5.27
2018-09-29T00:16:10.573Z,4.90
2018-09-29T00:18:38.748Z,5.50
2018-09-29T00:21:06.928Z,5.30
2018-09-29T00:23:35.155Z,5.30
2018-09-29T00:26:03.344Z,5.63
2018-09-29T00:28:31.529Z,4.90
2018-09-29T00:30:59.716Z,6.00
2018-09-29T00:33:27.905Z,6.20
2018-09-29T00:35:56.103Z,5.80
2018-09-29T00:38:24.357Z,6.00
2018-09-29T00:40:52.531Z,5.00
2018-09-29T00:43:20.811Z,5.77
2018-09-29T00:45:49.010Z,5.53
2018-09-29T00:48:17.216Z,6.00
2018-09-29T00:50:45.399Z,6.10
2018-09-29T00:53:13.584Z,6.10
2018-09-29T00:55:41.783Z,6.60
2018-09-29T00:58:10.058Z,6.20
2018-09-29T01:00:38.309Z,4.77
2018-09-29T01:03:06.594Z,5.10
2018-09-29T01:05:34.820Z,6.30
2018-09-29T01:08:03.003Z,5.30
2018-09-29T01:10:31.201Z,5.20
2018-09-29T01:12:59.618Z,6.13
2018-09-29T01:15:27.954Z,6.37
2018-09-29T01:17:56.336Z,6.57
2018-09-29T01:20:24.735Z,6.90
2018-09-29T01:22:53.232Z,6.77
2018-09-29T01:25:21.632Z,6.47
2018-09-29T01:27:50.027Z,7.17
2018-09-29T01:30:18.451Z,7.00
2018-09-29T01:32:46.928Z,6.23
2018-09-29T01:35:15.332Z,7.70
2018-09-29T01:37:43.773Z,6.90
2018-09-29T01:40:12.259Z,9.30
2018-09-29T01:42:40.652Z,9.17
2018-09-29T01:45:09.401Z,9.00
2018-09-29T01:47:37.848Z,8.60
2018-09-29T01:50:06.350Z,10.50
2018-09-29T01:52:34.818Z,9.17
2018-09-29T01:55:03.233Z,9.40
2018-09-29T01:57:31.591Z,10.13
2018-09-29T02:00:00.013Z,10.23
2018-09-29T02:02:28.434Z,11.07
2018-09-29T02:04:56.852Z,12.33
2018-09-29T02:07:25.265Z,10.57
2018-09-29T02:09:53.747Z,11.53
2018-09-29T02:12:22.185Z,12.10
2018-09-29T02:14:50.634Z,12.70
2018-09-29T02:17:19.037Z,12.67
2018-09-29T02:19:47.442Z,12.90
2018-09-29T02:22:15.987Z,15.03
2018-09-29T02:24:44.316Z,15.63
2018-09-29T02:27:12.717Z,15.90
2018-09-29T02:29:40.996Z,17.00
2018-09-29T02:32:09.224Z,15.40
2018-09-29T02:34:37.754Z,16.70
2018-09-29T02:37:05.628Z,16.20
2018-09-29T02:39:33.840Z,16.13
2018-09-29T02:42:02.047Z,15.87
2018-09-29T02:44:30.348Z,15.60
2018-09-29T02:46:59.359Z,14.77
2018-09-29T02:49:27.581Z,14.63
2018-09-29T02:51:55.938Z,15.40
2018-09-29T02:54:24.233Z,15.30
2018-09-29T02:56:52.590Z,15.20
2018-09-29T02:59:20.821Z,14.10
2018-09-29T03:01:49.115Z,15.23
2018-09-29T03:04:17.067Z,15.17
2018-09-29T03:06:46.364Z,15.03
2018-09-29T03:09:14.645Z,14.30
2018-09-29T03:11:42.834Z,15.87
2018-09-29T03:14:11.047Z,14.63
2018-09-29T03:16:39.224Z,15.00
2018-09-29T03:19:07.437Z,13.73
2018-09-29T03:21:35.633Z,13.50
2018-09-29T03:24:03.906Z,12.20
2018-09-29T03:26:32.144Z,12.27
2018-09-29T03:29:00.340Z,12.97
2018-09-29T03:31:28.973Z,13.63
2018-09-29T03:33:57.143Z,14.10
2018-09-29T03:36:25.331Z,13.03
2018-09-29T03:38:53.641Z,12.80
2018-09-29T03:41:21.848Z,11.90
2018-09-29T03:43:50.165Z,13.33
2018-09-29T03:46:18.384Z,12.37
2018-09-29T03:48:46.572Z,12.10
2018-09-29T03:51:14.881Z,12.23
2018-09-29T03:53:43.121Z,12.63
2018-09-29T03:56:11.296Z,13.17
2018-09-29T03:58:39.485Z,10.57
2018-09-29T04:01:07.742Z,10.87
2018-09-29T04:03:35.943Z,11.37
2018-09-29T04:06:04.184Z,11.40
2018-09-29T04:08:32.436Z,10.73
2018-09-29T04:11:00.711Z,10.40
2018-09-29T04:13:29.012Z,10.50
2018-09-29T04:15:57.216Z,9.57
2018-09-29T04:18:25.398Z,9.83
2018-09-29T04:20:53.631Z,11.13
2018-09-29T04:23:21.900Z,10.10
2018-09-29T04:25:50.205Z,9.33
2018-09-29T04:28:19.108Z,9.30
2018-09-29T04:30:47.344Z,9.83
2018-09-29T04:33:15.636Z,10.80
2018-09-29T04:35:44.045Z,10.50
2018-09-29T04:38:12.269Z,9.23
2018-09-29T04:40:41.121Z,8.63
2018-09-29T04:43:09.414Z,9.63
2018-09-29T04:45:37.613Z,10.10
2018-09-29T04:48:05.819Z,8.30
2018-09-29T04:50:34.058Z,9.53
2018-09-29T04:53:02.285Z,9.47
2018-09-29T04:55:30.495Z,9.13
2018-09-29T04:57:58.693Z,9.90
2018-09-29T05:00:26.887Z,8.97
2018-09-29T05:02:54.983Z,8.50
2018-09-29T05:05:23.188Z,9.13
2018-09-29T05:07:51.386Z,9.10
2018-09-29T05:10:19.605Z,10.17
2018-09-29T05:12:47.791Z,9.40
2018-09-29T05:15:16.108Z,10.00
2018-09-29T05:17:44.302Z,9.80
2018-09-29T05:20:12.519Z,9.80
2018-09-29T05:22:40.740Z,9.80
2018-09-29T05:25:08.939Z,10.07
2018-09-29T05:27:37.129Z,11.10
2018-09-29T05:30:06.816Z,10.80
2018-09-29T05:32:35.016Z,8.90
2018-09-29T05:35:03.192Z,8.73
2018-09-29T05:37:31.420Z,9.60
2018-09-29T05:39:59.624Z,9.40
2018-09-29T05:42:27.802Z,9.80
2018-09-29T05:44:56.018Z,9.73
2018-09-29T05:47:24.204Z,10.63
2018-09-29T05:49:52.500Z,10.10
2018-09-29T05:52:20.723Z,9.60
2018-09-29T05:54:49.027Z,10.00
2018-09-29T05:57:17.219Z,10.93
2018-09-29T05:59:45.411Z,9.00
2018-09-29T06:02:13.584Z,9.27
2018-09-29T06:04:41.768Z,9.73
2018-09-29T06:07:10.018Z,9.80
2018-09-29T06:09:38.288Z,9.93
2018-09-29T06:12:06.483Z,10.57
2018-09-29T06:14:34.751Z,10.37
2018-09-29T06:17:02.942Z,12.20
2018-09-29T06:19:31.128Z,10.73
2018-09-29T06:21:59.359Z,10.53
2018-09-29T06:24:27.540Z,10.53
2018-09-29T06:26:55.742Z,10.80
2018-09-29T06:29:23.957Z,11.60
2018-09-29T06:31:52.153Z,10.57
2018-09-29T06:34:20.396Z,9.67
2018-09-29T06:36:48.588Z,10.20
2018-09-29T06:39:16.737Z,10.83
2018-09-29T06:41:44.952Z,10.53
2018-09-29T06:44:13.149Z,11.10
2018-09-29T06:46:41.397Z,10.50
2018-09-29T06:49:09.617Z,11.10
2018-09-29T06:51:37.819Z,10.90
2018-09-29T06:54:05.785Z,10.20
2018-09-29T06:56:34.080Z,10.93
2018-09-29T06:59:02.263Z,10.23
2018-09-29T07:01:30.624Z,10.70
2018-09-29T07:03:58.863Z,9.90
2018-09-29T07:06:27.141Z,11.23
2018-09-29T07:08:55.090Z,9.73
2018-09-29T07:11:23.125Z,9.67
2018-09-29T07:13:51.307Z,10.53
2018-09-29T07:16:19.495Z,9.77
2018-09-29T07:18:47.685Z,10.20
2018-09-29T07:21:15.915Z,10.47
2018-09-29T07:23:44.115Z,10.30
2018-09-29T07:26:12.299Z,9.90
2018-09-29T07:28:40.503Z,10.57
2018-09-29T07:31:08.923Z,10.10
2018-09-29T07:33:37.108Z,10.30
2018-09-29T07:36:05.292Z,9.20
2018-09-29T07:38:33.587Z,10.27
2018-09-29T07:41:01.779Z,10.20
2018-09-29T07:43:29.954Z,9.00
2018-09-29T07:45:58.176Z,9.63
2018-09-29T07:48:26.366Z,9.80
2018-09-29T07:50:54.579Z,9.73
2018-09-29T07:53:22.775Z,9.47
2018-09-29T07:55:50.985Z,10.97
2018-09-29T07:58:19.192Z,10.80
2018-09-29T08:00:53.885Z,10.13
2018-09-29T08:03:22.083Z,9.77
2018-09-29T08:05:50.317Z,10.20
2018-09-29T08:08:18.527Z,10.63
2018-09-29T08:10:46.576Z,9.90
2018-09-29T08:13:14.765Z,10.43
2018-09-29T08:15:42.976Z,10.20
2018-09-29T08:18:11.171Z,12.40
2018-09-29T08:20:39.367Z,11.47
2018-09-29T08:23:07.578Z,10.17
2018-09-29T08:25:35.809Z,10.40
2018-09-29T08:28:03.993Z,9.97
2018-09-29T08:30:32.726Z,10.70
2018-09-29T08:33:00.932Z,12.10
2018-09-29T08:35:29.213Z,9.70
2018-09-29T08:37:57.399Z,11.73
2018-09-29T08:40:25.613Z,10.50
2018-09-29T08:42:53.852Z,10.80
2018-09-29T08:45:22.032Z,11.27
2018-09-29T08:47:50.293Z,10.30
2018-09-29T08:50:18.480Z,10.17
2018-09-29T08:52:46.738Z,11.83
2018-09-29T08:55:15.020Z,10.50
2018-09-29T08:57:43.250Z,12.30
2018-09-29T09:00:11.423Z,11.47
2018-09-29T09:02:39.623Z,11.10
2018-09-29T09:05:07.816Z,11.10
2018-09-29T09:07:36.001Z,10.50
2018-09-29T09:10:03.955Z,10.03
2018-09-29T09:12:32.579Z,11.77
2018-09-29T09:15:00.575Z,12.00
2018-09-29T09:17:28.877Z,12.40
2018-09-29T09:19:57.525Z,12.53
2018-09-29T09:22:25.730Z,10.80
2018-09-29T09:25:00.672Z,11.20
2018-09-29T09:27:28.852Z,10.37
2018-09-29T09:29:57.168Z,9.70
2018-09-29T09:32:25.288Z,10.47
2018-09-29T09:34:53.489Z,11.63
2018-09-29T09:37:21.675Z,11.20
2018-09-29T09:39:49.871Z,11.50
2018-09-29T09:42:18.108Z,11.70
2018-09-29T09:44:46.304Z,11.97
2018-09-29T09:47:14.504Z,12.00
2018-09-29T09:49:42.700Z,13.00
2018-09-29T09:52:10.975Z,11.60
2018-09-29T09:54:39.198Z,12.40
2018-09-29T09:57:07.400Z,11.13
2018-09-29T09:59:35.604Z,11.83
2018-09-29T10:02:09.588Z,12.03
2018-09-29T10:04:37.824Z,11.80
2018-09-29T10:07:07.359Z,11.87
2018-09-29T10:09:36.461Z,11.43
2018-09-29T10:12:04.947Z,15.17
2018-09-29T10:14:33.335Z,12.00
2018-09-29T10:17:01.521Z,12.63
2018-09-29T10:19:29.715Z,12.20
2018-09-29T10:21:57.920Z,12.70
2018-09-29T10:24:26.120Z,12.50
2018-09-29T10:26:54.351Z,13.13
2018-09-29T10:29:22.542Z,13.30
2018-09-29T10:31:50.728Z,13.17
2018-09-29T10:34:18.963Z,12.30
2018-09-29T10:36:47.136Z,13.97
2018-09-29T10:39:15.332Z,14.13
2018-09-29T10:41:43.523Z,13.80
2018-09-29T10:44:12.272Z,14.13
2018-09-29T10:46:40.502Z,13.00
2018-09-29T10:49:08.744Z,15.77
2018-09-29T10:51:36.935Z,14.70
2018-09-29T10:54:05.141Z,14.37
2018-09-29T10:56:33.356Z,14.70
2018-09-29T10:59:01.570Z,13.93
2018-09-29T11:01:29.856Z,14.10
2018-09-29T11:03:58.083Z,14.00
2018-09-29T11:06:26.281Z,15.10
2018-09-29T11:08:54.464Z,13.10
2018-09-29T11:11:22.676Z,12.77
2018-09-29T11:13:50.944Z,12.63
2018-09-29T11:16:18.924Z,10.50
2018-09-29T11:18:46.919Z,12.80
2018-09-29T11:21:15.121Z,12.47
2018-09-29T11:23:43.401Z,10.87
2018-09-29T11:26:11.691Z,11.80
2018-09-29T11:28:39.896Z,12.70
2018-09-29T11:31:08.187Z,11.80
2018-09-29T11:33:36.444Z,11.47
2018-09-29T11:36:04.728Z,11.37
2018-09-29T11:38:33.004Z,8.90
2018-09-29T11:41:01.273Z,9.17
2018-09-29T11:43:29.570Z,8.50
2018-09-29T11:45:57.936Z,8.73
2018-09-29T11:48:26.126Z,9.20
2018-09-29T11:52:23.592Z,7.90
2018-09-29T11:54:51.832Z,8.30
2018-09-29T11:57:19.798Z,9.47
2018-09-29T11:59:48.094Z,9.57
2018-09-29T12:02:16.296Z,8.40
2018-09-29T12:04:44.486Z,9.20
2018-09-29T12:07:12.805Z,8.57
2018-09-29T12:09:40.940Z,9.10
2018-09-29T12:12:09.169Z,9.07
2018-09-29T12:14:37.428Z,9.40
2018-09-29T12:17:05.783Z,7.80
2018-09-29T12:19:34.067Z,9.20
2018-09-29T12:22:02.260Z,8.53
2018-09-29T12:24:30.676Z,9.30
2018-09-29T12:26:58.876Z,8.27
2018-09-29T12:29:27.159Z,9.73
2018-09-29T12:31:55.277Z,9.63
2018-09-29T12:34:23.595Z,8.00
2018-09-29T12:36:51.893Z,7.73
2018-09-29T12:39:20.050Z,8.90
2018-09-29T12:41:48.268Z,8.33
2018-09-29T12:44:16.466Z,8.40
2018-09-29T12:46:44.716Z,8.30
2018-09-29T12:49:13.156Z,9.20
2018-09-29T12:51:41.236Z,7.53
2018-09-29T12:54:09.455Z,9.03
2018-09-29T12:56:37.679Z,8.23
2018-09-29T12:59:05.678Z,9.87
2018-09-29T13:01:33.886Z,8.37
2018-09-29T13:04:03.209Z,8.17
2018-09-29T13:06:31.259Z,8.80
2018-09-29T13:08:59.507Z,8.97
2018-09-29T13:11:27.795Z,8.57
2018-09-29T13:13:56.044Z,7.40
2018-09-29T13:16:24.369Z,7.87
2018-09-29T13:18:52.552Z,8.07
2018-09-29T13:21:20.731Z,8.87
2018-09-29T13:23:48.944Z,8.30
2018-09-29T13:26:17.149Z,9.43
2018-09-29T13:28:45.364Z,7.13
2018-09-29T13:31:13.556Z,8.40
2018-09-29T13:33:41.747Z,9.60
2018-09-29T13:36:14.283Z,8.33
2018-09-29T13:38:42.483Z,7.43
2018-09-29T13:41:10.822Z,7.40
2018-09-29T13:43:39.164Z,7.40
2018-09-29T13:46:07.431Z,6.50
2018-09-29T13:48:35.727Z,6.60
2018-09-29T13:51:03.911Z,6.13
2018-09-29T13:53:32.249Z,6.43
2018-09-29T13:56:00.215Z,7.47
2018-09-29T13:58:28.429Z,6.93
2018-09-29T14:00:56.728Z,6.60
2018-09-29T14:03:24.972Z,7.10
2018-09-29T14:05:53.169Z,6.40
2018-09-29T14:08:21.389Z,5.77
2018-09-29T14:10:49.663Z,6.50
2018-09-29T14:13:17.929Z,5.60
2018-09-29T14:15:46.143Z,6.93
2018-09-29T14:18:14.343Z,7.57
2018-09-29T14:20:42.564Z,5.50
2018-09-29T14:23:10.871Z,6.60
2018-09-29T14:25:39.080Z,6.40
2018-09-29T14:28:07.270Z,5.70
2018-09-29T14:30:35.456Z,6.30
2018-09-29T14:33:03.768Z,6.83
2018-09-29T14:35:31.964Z,5.93
2018-09-29T14:38:00.215Z,5.97
2018-09-29T14:40:28.408Z,6.13
2018-09-29T14:42:56.608Z,6.07
2018-09-29T14:45:24.831Z,6.37
2018-09-29T14:47:53.039Z,5.50
2018-09-29T14:50:21.215Z,4.97
2018-09-29T14:52:49.479Z,5.83
2018-09-29T14:55:17.723Z,4.70
2018-09-29T14:57:46.110Z,5.33
2018-09-29T15:00:14.064Z,5.33
2018-09-29T15:02:42.050Z,5.60
2018-09-29T15:05:10.355Z,5.47
2018-09-29T15:07:38.567Z,6.07
2018-09-29T15:10:06.820Z,4.77
2018-09-29T15:12:35.057Z,5.70
2018-09-29T15:15:03.282Z,4.90
2018-09-29T15:17:31.504Z,4.70
2018-09-29T15:19:59.693Z,9.30
2018-09-29T15:22:27.927Z,5.63
2018-09-29T15:24:56.115Z,4.70
2018-09-29T15:27:24.399Z,4.90
2018-09-29T15:29:52.641Z,4.60
2018-09-29T15:32:20.959Z,5.30
2018-09-29T15:34:49.146Z,5.17
2018-09-29T15:37:17.331Z,6.23
2018-09-29T15:39:45.519Z,4.87
2018-09-29T15:42:13.707Z,5.67
2018-09-29T15:44:41.896Z,4.77
2018-09-29T15:47:10.119Z,5.70
2018-09-29T15:49:38.312Z,5.13
2018-09-29T15:52:06.567Z,4.53
2018-09-29T15:54:34.514Z,4.37
2018-09-29T15:57:02.707Z,4.63
2018-09-29T15:59:30.654Z,4.83
2018-09-29T16:01:58.861Z,5.20
2018-09-29T16:04:27.070Z,5.93
2018-09-29T16:06:55.260Z,5.13
2018-09-29T16:09:23.440Z,4.20
2018-09-29T16:11:51.632Z,4.40
2018-09-29T16:14:19.940Z,4.53
2018-09-29T16:16:48.316Z,5.90
2018-09-29T16:19:16.714Z,4.73
2018-09-29T16:21:45.159Z,5.60
2018-09-29T16:24:13.599Z,3.77
2018-09-29T16:26:41.921Z,4.80
2018-09-29T16:29:10.277Z,4.03
2018-09-29T16:31:38.499Z,5.03
2018-09-29T16:34:06.851Z,4.17
2018-09-29T16:36:35.236Z,4.67
2018-09-29T16:39:03.728Z,3.90
2018-09-29T16:41:32.099Z,4.70
2018-09-29T16:44:00.400Z,4.20
2018-09-29T16:46:28.615Z,4.03
2018-09-29T16:48:56.950Z,4.93
2018-09-29T16:51:25.144Z,4.20
2018-09-29T16:53:53.352Z,4.47
2018-09-29T16:56:21.566Z,4.10
2018-09-29T16:58:49.930Z,4.70
2018-09-29T17:01:18.019Z,4.90
2018-09-29T17:03:46.127Z,5.60
2018-09-29T17:06:14.450Z,5.50
2018-09-29T17:08:42.829Z,5.53
2018-09-29T17:11:11.040Z,4.67
2018-09-29T17:13:39.353Z,5.43
2018-09-29T17:16:07.729Z,4.93
2018-09-29T17:18:35.936Z,5.60
2018-09-29T17:21:04.320Z,4.60
2018-09-29T17:23:32.737Z,5.40
2018-09-29T17:26:01.108Z,5.30
2018-09-29T17:28:29.445Z,5.83
2018-09-29T17:30:57.999Z,4.80
2018-09-29T17:33:26.267Z,5.20
2018-09-29T17:35:54.472Z,5.60
2018-09-29T17:38:22.667Z,4.93
2018-09-29T17:40:50.903Z,4.80
2018-09-29T17:43:19.100Z,5.17
2018-09-29T17:45:47.497Z,5.60
2018-09-29T17:49:19.139Z,4.87
2018-09-29T17:51:47.340Z,5.67
2018-09-29T17:54:15.544Z,5.00
2018-09-29T17:56:43.801Z,4.50
2018-09-29T17:59:12.000Z,5.27
2018-09-29T18:01:40.205Z,5.37
2018-09-29T18:04:08.519Z,5.80
2018-09-29T18:06:36.627Z,4.77
2018-09-29T18:09:07.622Z,5.33
2018-09-29T18:11:35.869Z,4.50
2018-09-29T18:14:04.071Z,4.67
2018-09-29T18:16:33.303Z,5.60
2018-09-29T18:19:01.492Z,5.10
2018-09-29T18:21:29.842Z,5.10
2018-09-29T18:23:58.028Z,5.13
2018-09-29T18:26:26.019Z,5.67
2018-09-29T18:28:53.943Z,6.30
2018-09-29T18:31:21.936Z,6.07
2018-09-29T18:33:50.166Z,4.93
2018-09-29T18:36:18.428Z,4.37
2018-09-29T18:38:46.636Z,5.43
2018-09-29T18:41:14.872Z,4.47
2018-09-29T18:43:43.084Z,4.10
2018-09-29T18:46:11.282Z,5.27
2018-09-29T18:48:40.429Z,5.10
2018-09-29T18:51:08.631Z,4.30
2018-09-29T18:53:36.827Z,4.40
2018-09-29T18:56:05.015Z,4.13
2018-09-29T18:58:33.222Z,4.00
2018-09-29T19:01:01.424Z,4.47
2018-09-29T19:03:29.635Z,4.70
2018-09-29T19:05:57.827Z,4.80
2018-09-29T19:08:26.204Z,4.20
2018-09-29T19:10:54.442Z,4.70
2018-09-29T19:13:22.682Z,4.97
2018-09-29T19:15:50.928Z,4.33
2018-09-29T19:18:19.139Z,3.90
2018-09-29T19:20:47.840Z,5.03
2018-09-29T19:23:16.059Z,6.20
2018-09-29T19:25:44.321Z,5.40
2018-09-29T19:28:12.264Z,4.03
2018-09-29T19:30:40.239Z,4.97
2018-09-29T19:33:08.179Z,4.80
2018-09-29T19:35:36.391Z,3.73
2018-09-29T19:38:04.893Z,4.53
2018-09-29T19:40:33.139Z,4.90
2018-09-29T19:43:01.332Z,4.53
2018-09-29T19:45:29.609Z,5.40
2018-09-29T19:47:57.780Z,4.80
2018-09-29T19:50:26.080Z,4.27
2018-09-29T19:52:54.280Z,4.80
2018-09-29T19:55:22.490Z,4.50
2018-09-29T19:57:50.844Z,5.23
2018-09-29T20:00:19.068Z,4.70
2018-09-29T20:02:47.349Z,4.67
2018-09-29T20:05:15.538Z,5.47
2018-09-29T20:07:43.720Z,4.07
2018-09-29T20:10:11.982Z,4.60
2018-09-29T20:12:40.163Z,5.20
2018-09-29T20:15:08.347Z,4.80
2018-09-29T20:17:36.583Z,4.13
2018-09-29T20:20:04.883Z,3.60
2018-09-29T20:22:33.063Z,4.33
2018-09-29T20:25:01.295Z,3.80
2018-09-29T20:27:29.487Z,3.83
2018-09-29T20:29:57.672Z,4.23
2018-09-29T20:32:25.865Z,4.43
2018-09-29T20:34:53.811Z,4.40
2018-09-29T20:37:22.228Z,4.03
2018-09-29T20:39:50.447Z,4.73
2018-09-29T20:42:18.652Z,5.47
2018-09-29T20:44:46.890Z,4.53
2018-09-29T20:47:15.196Z,5.40
2018-09-29T20:49:43.372Z,5.30
2018-09-29T20:52:11.580Z,4.53
2018-09-29T20:54:39.791Z,3.50
2018-09-29T20:57:08.139Z,4.63
2018-09-29T20:59:36.332Z,4.73
2018-09-29T21:02:04.623Z,4.30
2018-09-29T21:04:32.844Z,4.53
2018-09-29T21:07:01.035Z,3.40
2018-09-29T21:09:29.240Z,4.10
2018-09-29T21:11:59.210Z,4.00
2018-09-29T21:14:27.440Z,4.20
2018-09-29T21:16:55.717Z,4.10
2018-09-29T21:19:23.952Z,3.80
2018-09-29T21:21:52.159Z,4.97
2018-09-29T21:24:20.353Z,4.43
2018-09-29T21:26:48.604Z,4.93
2018-09-29T21:29:16.780Z,4.80
2018-09-29T21:31:44.741Z,5.60
2018-09-29T21:34:13.052Z,4.27
2018-09-29T21:36:41.007Z,4.60
2018-09-29T21:39:09.551Z,4.60
2018-09-29T21:41:37.805Z,4.90
2018-09-29T21:44:06.230Z,4.00
2018-09-29T21:46:34.418Z,4.83
2018-09-29T21:49:02.627Z,4.10
2018-09-29T21:51:30.969Z,4.70
2018-09-29T21:53:59.160Z,4.67
2018-09-29T21:56:27.416Z,4.00
2018-09-29T21:58:55.620Z,5.13
2018-09-29T22:01:29.225Z,4.03
2018-09-29T22:03:57.466Z,4.07
2018-09-29T22:06:25.996Z,4.00
2018-09-29T22:08:54.213Z,3.93
2018-09-29T22:11:22.408Z,4.67
2018-09-29T22:13:50.663Z,5.40
2018-09-29T22:16:19.075Z,3.70
2018-09-29T22:18:47.257Z,3.23
2018-09-29T22:21:15.440Z,4.10
2018-09-29T22:23:43.630Z,3.70
2018-09-29T22:26:12.107Z,3.50
2018-09-29T22:28:40.331Z,3.57
2018-09-29T22:31:08.527Z,3.70
2018-09-29T22:33:36.807Z,3.60
2018-09-29T22:36:05.164Z,3.60
2018-09-29T22:38:33.372Z,3.83
2018-09-29T22:41:01.583Z,3.33
2018-09-29T22:43:29.777Z,3.73
2018-09-29T22:45:57.983Z,5.80
2018-09-29T22:48:26.166Z,3.77
2018-09-29T22:50:54.388Z,3.90
2018-09-29T22:53:22.576Z,3.60
2018-09-29T22:55:50.788Z,3.40
2018-09-29T22:58:18.972Z,3.47
2018-09-29T23:00:47.197Z,4.23
2018-09-29T23:03:15.416Z,3.93
2018-09-29T23:05:43.651Z,3.57
2018-09-29T23:08:11.919Z,4.03
2018-09-29T23:10:40.128Z,3.53
2018-09-29T23:13:08.317Z,3.50
2018-09-29T23:15:36.531Z,4.10
2018-09-29T23:18:04.755Z,4.30
2018-09-29T23:20:32.991Z,3.80
2018-09-29T23:23:01.226Z,4.17
2018-09-29T23:25:29.449Z,3.60
2018-09-29T23:27:57.684Z,4.13
2018-09-29T23:30:26.071Z,4.10
2018-09-29T23:32:54.284Z,4.23
2018-09-29T23:35:22.535Z,3.60
2018-09-29T23:37:50.497Z,3.47
2018-09-29T23:40:18.715Z,3.53
2018-09-29T23:42:46.951Z,3.20
2018-09-29T23:45:15.143Z,3.80
2018-09-29T23:47:43.356Z,3.53
2018-09-29T23:50:11.579Z,3.80
2018-09-29T23:52:39.755Z,3.50
2018-09-29T23:55:07.944Z,4.70
2018-09-29T23:57:36.156Z,3.70
